Time;durP1;ratioP1;P1;durP2;ratioP2;P2;SDS_P1;SDS_P2;PMS_P1;PMS_P2;Temp;Humidity;BMP_temperature;BMP_pressure;BME280_temperature;BME280_humidity;BME280_pressure;Samples;Min_cycle;Max_cycle;Signal;HPM_P1;HPM_P2
2022/05/03 00:02:29;;;;;;;;;37.75;34.00;;;;;15.60;48.09;101181.38;4970530;28;45576;-86
2022/05/03 00:05:31;;;;;;;;;41.75;36.25;;;;;15.39;48.24;101151.53;4971259;28;46347;-86
2022/05/03 00:08:20;;;;;;;;;35.50;32.00;;;;;15.55;48.07;101176.31;4941923;28;45703;-86
2022/05/03 00:11:09;;;;;;;;;41.50;33.50;;;;;15.52;48.08;101171.19;4970277;28;45434;-86
2022/05/03 00:13:46;;;;;;;;;41.25;35.00;;;;;15.37;48.05;101159.69;4968313;28;45436;-85
2022/05/03 00:16:13;;;;;;;;;44.25;35.75;;;;;15.49;48.10;101166.88;4967445;28;47460;-86
2022/05/03 00:18:41;;;;;;;;;43.75;35.75;;;;;15.44;48.19;101169.03;4987647;28;45449;-87
2022/05/03 00:21:06;;;;;;;;;41.75;34.75;;;;;15.34;48.05;101149.16;4989684;28;45489;-87
2022/05/03 00:23:32;;;;;;;;;42.75;35.50;;;;;15.39;48.19;101163.09;4993420;28;45501;-86
2022/05/03 00:25:58;;;;;;;;;43.50;33.75;;;;;15.37;48.11;101166.88;5002476;28;45696;-86
2022/05/03 00:28:25;;;;;;;;;40.50;35.00;;;;;15.33;48.48;101167.09;5005014;28;45443;-86
2022/05/03 00:30:52;;;;;;;;;42.00;35.25;;;;;14.98;48.64;101105.16;5000236;28;45438;-86
2022/05/03 00:33:19;;;;;;;;;39.75;34.75;;;;;15.20;48.67;101152.81;5002888;28;45491;-86
2022/05/03 00:35:45;;;;;;;;;36.25;32.50;;;;;15.25;48.45;101164.09;5004121;28;45519;-87
2022/05/03 00:38:10;;;;;;;;;36.00;29.75;;;;;15.17;48.39;101146.78;4996072;28;45407;-85
2022/05/03 00:40:44;;;;;;;;;36.75;33.50;;;;;15.04;48.64;101136.06;4991420;28;46086;-87
2022/05/03 00:43:20;;;;;;;;;37.50;34.50;;;;;15.15;48.75;101154.09;4993544;28;45485;-88
2022/05/03 00:45:52;;;;;;;;;32.75;31.75;;;;;15.13;48.86;101152.38;4993549;28;45439;-88
2022/05/03 00:48:36;;;;;;;;;38.50;33.25;;;;;15.10;48.87;101151.72;4989690;28;45638;-88
2022/05/03 00:51:25;;;;;;;;;40.75;36.00;;;;;15.03;48.92;101143.25;4991294;28;45415;-86
2022/05/03 00:54:13;;;;;;;;;42.75;34.25;;;;;14.97;48.90;101140.13;4992206;28;45421;-87
2022/05/03 00:57:14;;;;;;;;;39.75;35.50;;;;;15.02;48.90;101154.06;4994540;28;46157;-87
2022/05/03 00:59:59;;;;;;;;;43.25;36.50;;;;;15.00;49.02;101151.50;4983780;28;45439;-86
2022/05/03 01:03:03;;;;;;;;;41.00;34.50;;;;;14.98;49.12;101156.09;4996635;28;45462;-87
2022/05/03 01:05:39;;;;;;;;;42.50;34.00;;;;;14.95;48.97;101152.78;4991109;28;45928;-86
2022/05/03 01:08:07;;;;;;;;;40.50;35.75;;;;;14.88;49.15;101150.50;4997408;28;45372;-87
2022/05/03 01:11:29;;;;;;;;;46.00;37.75;;;;;14.89;49.16;101152.22;4996908;28;45523;-86
2022/05/03 01:14:10;;;;;;;;;38.75;34.25;;;;;14.65;49.13;101124.41;4916248;28;45607;-87
2022/05/03 01:16:46;;;;;;;;;42.50;35.00;;;;;14.79;49.52;101148.47;4899390;28;45435;-87
2022/05/03 01:19:34;;;;;;;;;40.25;34.75;;;;;14.84;49.24;101149.00;4916539;28;45830;-87
2022/05/03 01:22:14;;;;;;;;;39.75;33.00;;;;;14.80;49.17;101147.50;4916049;28;45419;-87
2022/05/03 01:24:42;;;;;;;;;35.75;33.00;;;;;14.80;49.11;101149.31;4916726;28;45677;-87
2022/05/03 01:27:59;;;;;;;;;42.00;35.25;;;;;14.75;49.38;101146.94;4899098;28;45476;-87
2022/05/03 01:30:29;;;;;;;;;39.75;33.00;;;;;14.58;49.48;101120.41;4859407;29;45482;-87
2022/05/03 01:33:05;;;;;;;;;41.50;35.00;;;;;14.61;49.32;101126.41;4859343;29;45881;-87
2022/05/03 01:35:38;;;;;;;;;37.50;34.50;;;;;14.39;49.44;101089.47;4860190;29;45489;-87
2022/05/03 01:38:13;;;;;;;;;33.50;32.25;;;;;14.72;49.63;101141.78;4858685;29;45357;-85
2022/05/03 01:41:15;;;;;;;;;40.25;34.00;;;;;14.73;49.36;101142.66;4859380;29;46516;-86
2022/05/03 01:44:01;;;;;;;;;34.00;31.00;;;;;14.63;49.26;101129.88;4867139;28;46398;-86
2022/05/03 01:46:36;;;;;;;;;38.50;35.50;;;;;14.62;49.32;101124.59;4932824;28;45455;-86
2022/05/03 01:52:18;;;;;;;;;40.75;32.75;;;;;14.51;49.30;101106.53;4935321;28;45945;-87
2022/05/03 01:54:55;;;;;;;;;40.75;35.50;;;;;14.67;49.23;101130.50;4935341;28;45482;-86
2022/05/03 01:57:37;;;;;;;;;34.75;31.75;;;;;14.64;49.24;101128.03;4935772;28;45433;-86
2022/05/03 02:00:08;;;;;;;;;36.25;33.00;;;;;14.59;49.41;101130.16;4919359;28;45444;-85
2022/05/03 02:02:54;;;;;;;;;45.00;35.75;;;;;14.57;49.28;101124.03;4918433;28;48236;-86
2022/05/03 02:05:57;;;;;;;;;36.50;33.00;;;;;14.51;49.68;101121.75;4948863;28;45555;-86
2022/05/03 02:08:24;;;;;;;;;35.50;31.25;;;;;14.16;50.02;101090.97;4996712;28;45358;-85
2022/05/03 02:11:23;;;;;;;;;33.50;32.25;;;;;14.20;50.15;101095.16;4995673;28;45431;-85
2022/05/03 02:16:51;;;;;;;;;34.50;31.00;;;;;14.32;50.09;101125.66;4979114;28;45764;-86
2022/05/03 02:19:34;;;;;;;;;35.75;33.75;;;;;14.30;50.36;101126.72;4961881;28;45551;-86
2022/05/03 02:22:26;;;;;;;;;41.50;33.25;;;;;14.30;50.24;101119.53;4961667;28;45622;-86
2022/05/03 02:25:07;;;;;;;;;33.75;32.50;;;;;14.27;49.97;101109.03;4977735;28;46175;-86
2022/05/03 02:27:35;;;;;;;;;33.50;32.25;;;;;14.21;50.21;101110.25;4977992;28;45466;-85
2022/05/03 02:30:02;;;;;;;;;39.25;33.00;;;;;14.24;50.07;101123.47;4974827;28;45462;-86
2022/05/03 02:32:37;;;;;;;;;32.50;30.25;;;;;14.11;50.22;101114.50;4976942;28;45623;-86
2022/05/03 02:35:05;;;;;;;;;40.75;34.50;;;;;14.20;50.28;101126.44;4976232;28;46228;-86
2022/05/03 02:38:12;;;;;;;;;34.50;32.00;;;;;14.17;50.29;101129.34;4977780;28;45642;-86
2022/05/03 02:40:44;;;;;;;;;32.75;30.00;;;;;14.20;50.30;101131.81;4915252;28;45563;-86
2022/05/03 02:43:12;;;;;;;;;35.00;31.75;;;;;14.17;50.37;101124.84;4931464;28;45474;-85
2022/05/03 02:45:50;;;;;;;;;38.00;33.75;;;;;14.14;50.86;101135.75;4931075;28;48246;-85
2022/05/03 02:48:32;;;;;;;;;36.75;31.50;;;;;14.11;50.30;101130.56;4915215;28;45665;-86
2022/05/03 02:51:01;;;;;;;;;38.25;33.25;;;;;14.10;50.80;101130.69;4901236;28;45630;-86
2022/05/03 02:53:51;;;;;;;;;35.00;31.50;;;;;14.06;50.72;101130.00;4933968;28;45610;-86
2022/05/03 02:56:25;;;;;;;;;38.75;33.50;;;;;13.91;50.81;101118.47;4954259;28;45433;-85
2022/05/03 02:59:11;;;;;;;;;35.00;31.00;;;;;14.00;50.73;101142.00;4953685;28;45488;-85
2022/05/03 03:01:58;;;;;;;;;32.00;30.75;;;;;14.01;50.78;101141.00;4953892;28;49709;-85
2022/05/03 03:04:36;;;;;;;;;28.00;24.75;;;;;14.02;50.71;101131.16;4953736;28;45569;-86
2022/05/03 03:07:03;;;;;;;;;34.25;31.00;;;;;13.95;51.00;101132.50;4953795;28;47958;-85
2022/05/03 03:09:40;;;;;;;;;36.00;32.75;;;;;13.98;50.83;101133.19;4953307;28;45351;-86
2022/05/03 03:12:14;;;;;;;;;31.75;30.25;;;;;13.98;50.91;101124.31;4987399;28;45732;-85
2022/05/03 03:14:45;;;;;;;;;39.25;33.50;;;;;13.67;50.85;101083.44;4993773;28;45549;-85
2022/05/03 03:17:12;;;;;;;;;37.00;33.25;;;;;13.87;50.85;101116.09;4995497;28;45519;-86
2022/05/03 03:20:04;;;;;;;;;41.50;33.75;;;;;13.93;51.23;101126.41;5158508;22;46467;-82
2022/05/03 03:22:42;;;;;;;;;31.50;29.50;;;;;13.94;51.03;101128.97;4971658;28;45436;-86
2022/05/03 03:25:12;;;;;;;;;33.50;30.00;;;;;13.96;50.73;101127.06;4974848;28;45329;-85
2022/05/03 03:27:38;;;;;;;;;32.25;28.75;;;;;13.89;50.78;101131.09;4974883;28;46105;-86
2022/05/03 03:30:06;;;;;;;;;36.50;31.25;;;;;13.85;51.07;101129.56;4975307;28;45340;-85
2022/05/03 03:32:34;;;;;;;;;38.25;33.25;;;;;13.69;51.03;101108.28;4975076;28;45419;-86
2022/05/03 03:35:01;;;;;;;;;39.50;34.00;;;;;13.81;51.16;101126.25;4974745;28;45313;-85
2022/05/03 03:37:32;;;;;;;;;35.75;32.50;;;;;13.73;51.17;101112.47;4975092;28;45648;-84
2022/05/03 03:39:58;;;;;;;;;34.50;31.50;;;;;13.71;51.38;101106.38;4974758;28;45298;-85
2022/05/03 03:42:27;;;;;;;;;38.75;32.75;;;;;13.80;51.29;101126.31;4975051;28;45404;-85
2022/05/03 03:44:53;;;;;;;;;34.50;31.50;;;;;13.56;51.16;101088.59;4975175;28;45295;-84
2022/05/03 03:47:18;;;;;;;;;38.00;31.75;;;;;13.70;51.30;101111.81;4974749;28;45939;-85
2022/05/03 03:49:44;;;;;;;;;45.25;36.25;;;;;13.58;51.39;101094.72;4974836;28;54222;-85
2022/05/03 03:52:11;;;;;;;;;44.50;36.25;;;;;13.72;51.40;101123.28;4974871;28;45464;-85
2022/05/03 03:54:37;;;;;;;;;37.25;33.50;;;;;13.70;51.47;101125.19;4974624;28;45384;-85
2022/05/03 03:57:04;;;;;;;;;39.25;34.00;;;;;13.69;51.59;101115.47;4976254;28;46275;-85
2022/05/03 03:59:31;;;;;;;;;40.50;36.75;;;;;13.62;51.66;101125.69;4978031;28;45264;-85
2022/05/03 04:02:00;;;;;;;;;38.00;33.50;;;;;13.61;51.73;101126.63;4977953;28;45390;-86
2022/05/03 04:04:29;;;;;;;;;42.00;35.75;;;;;13.46;51.94;101106.19;4978386;28;45435;-85
2022/05/03 04:06:54;;;;;;;;;39.50;34.75;;;;;13.57;51.91;101119.75;4976402;28;46609;-85
2022/05/03 04:09:20;;;;;;;;;38.75;33.75;;;;;13.63;51.77;101124.72;4978150;28;45471;-86
2022/05/03 04:11:46;;;;;;;;;40.75;33.25;;;;;13.55;51.89;101110.97;4976956;28;45331;-85
2022/05/03 04:14:13;;;;;;;;;38.75;32.75;;;;;13.63;51.72;101125.56;4977859;28;45487;-85
2022/05/03 04:16:38;;;;;;;;;43.50;36.25;;;;;13.51;51.71;101114.78;4978087;28;45459;-85
2022/05/03 04:19:04;;;;;;;;;36.25;31.50;;;;;13.48;51.92;101101.63;4977670;28;45369;-86
2022/05/03 04:21:29;;;;;;;;;36.25;33.00;;;;;13.52;51.96;101114.69;5003613;28;45463;-85
2022/05/03 04:23:55;;;;;;;;;36.75;34.50;;;;;13.57;51.83;101119.75;5017482;28;45708;-86
2022/05/03 04:26:20;;;;;;;;;42.50;33.25;;;;;13.61;52.01;101138.22;5016791;28;45455;-86
2022/05/03 04:28:45;;;;;;;;;38.00;33.25;;;;;13.51;51.79;101115.63;5017445;28;45339;-85
2022/05/03 04:31:11;;;;;;;;;44.00;35.75;;;;;13.50;51.68;101123.78;5017020;28;45508;-85
2022/05/03 04:33:36;;;;;;;;;41.50;35.00;;;;;13.50;51.97;101131.81;5017128;28;45451;-85
2022/05/03 04:36:02;;;;;;;;;35.25;33.00;;;;;13.47;52.00;101113.25;5017321;28;45392;-85
2022/05/03 04:38:28;;;;;;;;;40.50;33.25;;;;;13.63;51.91;101130.91;5016822;28;45731;-85
2022/05/03 04:41:01;;;;;;;;;46.00;37.25;;;;;13.61;51.87;101129.28;5016902;28;45521;-85
2022/05/03 04:43:26;;;;;;;;;43.75;35.00;;;;;13.59;52.03;101136.59;5007263;28;45409;-84
2022/05/03 04:45:52;;;;;;;;;33.00;32.00;;;;;13.50;52.04;101127.31;5016673;28;46262;-84
2022/05/03 04:48:18;;;;;;;;;43.00;37.25;;;;;13.53;51.87;101135.13;5017008;28;45456;-84
2022/05/03 04:50:44;;;;;;;;;46.25;37.25;;;;;13.53;52.12;101136.94;4998934;28;45566;-85
2022/05/03 04:53:09;;;;;;;;;43.75;37.00;;;;;13.49;52.08;101122.03;5016822;28;45253;-85
2022/05/03 04:55:40;;;;;;;;;44.00;36.50;;;;;13.46;52.10;101120.41;5016738;28;51411;-85
2022/05/03 04:58:07;;;;;;;;;43.00;36.25;;;;;13.46;52.00;101111.53;5016504;28;45475;-84
2022/05/03 05:00:33;;;;;;;;;44.00;34.50;;;;;13.49;51.98;101125.56;5016780;28;45581;-85
2022/05/03 05:02:58;;;;;;;;;46.75;37.75;;;;;13.38;52.08;101104.00;5017191;28;45429;-85
2022/05/03 05:05:24;;;;;;;;;40.50;35.00;;;;;13.50;52.07;101131.81;5016453;28;45372;-85
2022/05/03 05:07:49;;;;;;;;;44.75;35.50;;;;;13.47;52.10;101127.50;5015852;28;46705;-85
2022/05/03 05:10:24;;;;;;;;;38.50;34.25;;;;;13.45;52.29;101137.44;5015755;28;45576;-85
2022/05/03 05:12:50;;;;;;;;;39.50;33.00;;;;;13.37;52.39;101139.69;5016475;28;45415;-86
2022/05/03 05:15:16;;;;;;;;;43.50;35.50;;;;;13.35;52.32;101125.59;5016841;28;45607;-85
2022/05/03 05:17:41;;;;;;;;;34.25;32.00;;;;;13.31;52.50;101121.38;5016300;28;45244;-86
2022/05/03 05:20:07;;;;;;;;;46.00;35.25;;;;;13.30;52.25;101123.19;4998393;28;45760;-87
2022/05/03 05:22:33;;;;;;;;;41.50;34.75;;;;;13.28;52.34;101122.44;5016896;28;45448;-85
2022/05/03 05:24:58;;;;;;;;;42.00;34.25;;;;;13.42;52.51;101150.97;5015640;28;54944;-85
2022/05/03 05:27:23;;;;;;;;;40.25;33.75;;;;;13.35;52.55;101145.16;5015877;28;45374;-85
2022/05/03 05:29:49;;;;;;;;;47.00;37.75;;;;;13.40;52.51;101158.25;5016348;28;45522;-85
2022/05/03 05:32:14;;;;;;;;;42.50;35.75;;;;;13.15;52.66;101113.38;5016117;28;45498;-85
2022/05/03 05:34:39;;;;;;;;;42.75;37.00;;;;;13.25;52.83;101129.72;4998446;28;48017;-85
2022/05/03 05:37:05;;;;;;;;;34.75;31.50;;;;;13.44;52.71;101165.13;5015312;28;45469;-84
2022/05/03 05:39:31;;;;;;;;;34.00;33.00;;;;;13.44;52.66;101165.13;5016032;28;45321;-84
2022/05/03 05:41:59;;;;;;;;;41.25;34.50;;;;;13.47;52.76;101161.38;5006084;28;45485;-84
2022/05/03 05:44:25;;;;;;;;;41.00;34.25;;;;;13.36;52.72;101154.91;4997868;28;47434;-84
2022/05/03 05:46:52;;;;;;;;;37.25;34.50;;;;;13.46;52.63;101162.34;5016035;28;45488;-84
2022/05/03 05:49:17;;;;;;;;;41.50;34.75;;;;;13.38;52.71;101150.31;4998371;28;45428;-84
2022/05/03 05:51:43;;;;;;;;;39.75;34.50;;;;;13.28;52.67;101138.47;5015692;28;45478;-84
2022/05/03 05:54:08;;;;;;;;;44.75;37.50;;;;;13.48;53.01;101176.50;5016150;28;45502;-85
2022/05/03 05:56:34;;;;;;;;;38.50;35.50;;;;;13.52;52.72;101176.22;5015535;28;45461;-84
2022/05/03 05:58:59;;;;;;;;;45.75;37.25;;;;;13.34;52.78;101145.25;4997319;28;54888;-84
2022/05/03 06:01:26;;;;;;;;;39.00;34.00;;;;;13.27;52.55;101134.06;5013339;28;45478;-85
2022/05/03 06:03:51;;;;;;;;;45.75;37.25;;;;;13.52;52.85;101180.72;5008314;28;45380;-85
2022/05/03 06:06:17;;;;;;;;;40.75;35.50;;;;;13.29;52.65;101158.91;5015753;28;45365;-84
2022/05/03 06:08:42;;;;;;;;;40.50;36.00;;;;;13.50;52.90;101196.00;5015867;28;45517;-83
2022/05/03 06:11:08;;;;;;;;;40.25;35.25;;;;;13.49;52.81;101196.94;5013734;28;45558;-83
2022/05/03 06:13:34;;;;;;;;;30.00;27.50;;;;;13.41;53.10;101189.38;4993494;28;47418;-83
2022/05/03 06:16:07;;;;;;;;;46.50;36.50;;;;;13.48;52.83;101198.75;5013162;28;45524;-84
2022/05/03 06:18:32;;;;;;;;;41.50;35.25;;;;;13.50;52.93;101202.19;5013541;28;45284;-84
2022/05/03 06:20:57;;;;;;;;;45.50;36.25;;;;;13.38;53.15;101190.44;5014948;28;45411;-84
2022/05/03 06:23:23;;;;;;;;;45.50;36.25;;;;;13.47;53.17;101199.72;5014793;28;46023;-84
2022/05/03 06:25:49;;;;;;;;;37.00;34.00;;;;;13.33;53.03;101175.63;4996488;28;53137;-83
2022/05/03 06:28:14;;;;;;;;;39.25;35.50;;;;;13.46;53.13;101208.69;5015076;28;45293;-84
2022/05/03 06:30:40;;;;;;;;;41.25;35.00;;;;;13.48;52.92;101205.91;5014460;28;52120;-84
2022/05/03 06:33:06;;;;;;;;;45.00;37.50;;;;;13.34;53.05;101186.22;4997210;28;47312;-85
2022/05/03 06:35:31;;;;;;;;;41.00;35.25;;;;;13.30;53.04;101173.13;4992060;28;46922;-84
2022/05/03 06:37:57;;;;;;;;;46.00;38.00;;;;;13.48;53.17;101206.78;5011005;28;51643;-83
2022/05/03 06:40:22;;;;;;;;;40.25;36.00;;;;;13.51;52.84;101201.22;5013971;28;45804;-86
2022/05/03 06:42:48;;;;;;;;;41.75;35.50;;;;;13.57;53.04;101205.38;4996282;28;48058;-85
2022/05/03 06:45:13;;;;;;;;;39.50;35.00;;;;;13.61;52.95;101202.41;5014965;28;45356;-85
2022/05/03 06:47:39;;;;;;;;;46.25;38.25;;;;;13.58;53.02;101204.41;5011315;28;45539;-82
2022/05/03 06:50:07;;;;;;;;;42.25;37.50;;;;;13.72;52.71;101208.91;5008326;28;45786;-85
2022/05/03 06:52:32;;;;;;;;;46.50;36.75;;;;;13.56;52.58;101185.75;5015139;28;46164;-85
2022/05/03 06:54:57;;;;;;;;;47.25;39.00;;;;;13.62;52.77;101196.09;5014573;28;45603;-85
2022/05/03 06:57:23;;;;;;;;;36.00;33.75;;;;;13.53;52.55;101177.94;5015058;28;45682;-85
2022/05/03 06:59:49;;;;;;;;;47.00;37.25;;;;;13.61;52.38;101183.69;4997042;28;45569;-85
2022/05/03 07:02:14;;;;;;;;;44.50;37.25;;;;;13.72;52.95;101199.06;5012151;28;46086;-85
2022/05/03 07:04:43;;;;;;;;;40.50;35.50;;;;;13.73;52.68;101203.44;5014503;28;45436;-85
2022/05/03 07:07:09;;;;;;;;;40.50;36.50;;;;;13.56;52.46;101180.41;5014502;28;45693;-85
2022/05/03 07:09:34;;;;;;;;;44.50;37.00;;;;;13.50;52.48;101182.63;4995759;28;45367;-85
2022/05/03 07:11:59;;;;;;;;;43.50;38.00;;;;;13.61;52.62;101197.06;4996787;28;47301;-86
2022/05/03 07:14:25;;;;;;;;;42.00;36.00;;;;;13.67;52.76;101211.88;5011436;28;59478;-84
2022/05/03 07:16:50;;;;;;;;;46.75;37.00;;;;;13.66;52.97;101215.47;4999052;28;45498;-86
2022/05/03 07:24:45;;;;;;;;;44.50;36.00;;;;;13.67;53.09;101211.88;5014199;28;45440;-84
2022/05/03 07:27:10;;;;;;;;;45.00;38.50;;;;;13.66;52.92;101207.44;5014533;28;45416;-83
2022/05/03 07:29:37;;;;;;;;;47.00;38.00;;;;;13.70;52.84;101203.63;5013769;28;45576;-82
2022/05/03 07:32:03;;;;;;;;;44.75;36.25;;;;;13.82;52.78;101218.06;5015247;28;45406;-84
2022/05/03 07:34:28;;;;;;;;;44.25;36.75;;;;;13.70;52.97;101189.41;5018261;28;45577;-84
2022/05/03 07:36:54;;;;;;;;;42.50;35.75;;;;;14.01;52.58;101224.00;5017684;28;45242;-84
2022/05/03 07:39:19;;;;;;;;;48.75;36.25;;;;;14.01;52.70;101213.28;5018172;28;45309;-84
2022/05/03 07:41:44;;;;;;;;;38.00;34.50;;;;;13.97;52.57;101201.03;5017125;28;51116;-84
2022/05/03 07:44:10;;;;;;;;;40.75;36.00;;;;;13.98;52.28;101194.75;5016491;28;45536;-83
2022/05/03 07:46:35;;;;;;;;;44.25;37.75;;;;;14.30;52.23;101231.16;5017234;28;45273;-84
2022/05/03 07:49:00;;;;;;;;;42.25;36.00;;;;;14.16;52.06;101191.84;5014998;28;45522;-84
2022/05/03 07:51:26;;;;;;;;;43.75;36.25;;;;;14.28;51.69;101202.63;5008996;28;45464;-84
2022/05/03 07:53:51;;;;;;;;;37.00;31.50;;;;;14.49;51.52;101216.47;5014848;28;45363;-84
2022/05/03 07:56:17;;;;;;;;;41.00;34.75;;;;;14.53;51.15;101206.44;5016949;28;45306;-84
2022/05/03 07:58:42;;;;;;;;;41.50;36.00;;;;;14.57;51.01;101209.78;5017641;28;45404;-84
2022/05/03 08:01:07;;;;;;;;;43.25;35.50;;;;;14.54;51.17;101205.47;5016108;28;49081;-84
2022/05/03 08:03:33;;;;;;;;;39.00;33.00;;;;;14.44;51.21;101180.22;5014649;28;45524;-84
2022/05/03 08:05:58;;;;;;;;;40.25;35.75;;;;;14.79;50.66;101228.88;5015133;28;46545;-84
2022/05/03 08:08:24;;;;;;;;;32.00;30.50;;;;;14.87;50.71;101223.00;5016963;28;45787;-84
2022/05/03 08:10:49;;;;;;;;;40.75;35.00;;;;;14.85;50.69;101224.91;5016447;28;46071;-84
2022/05/03 08:13:15;;;;;;;;;38.50;33.00;;;;;14.91;50.42;101221.81;5016922;28;45542;-84
2022/05/03 08:15:41;;;;;;;;;37.75;32.25;;;;;14.98;49.92;101224.94;5016951;28;45538;-84
2022/05/03 08:18:06;;;;;;;;;37.50;33.00;;;;;14.93;50.30;101214.53;5017584;28;45438;-84
2022/05/03 08:20:32;;;;;;;;;37.00;33.50;;;;;15.09;50.53;101228.63;5014660;28;46243;-84
2022/05/03 08:22:59;;;;;;;;;37.75;33.50;;;;;15.11;49.55;101239.25;5015995;28;45559;-83
2022/05/03 08:25:24;;;;;;;;;32.50;30.25;;;;;15.17;49.99;101237.97;5014269;28;45360;-84
2022/05/03 08:27:50;;;;;;;;;34.25;32.00;;;;;15.14;50.13;101220.28;5016093;28;45525;-84
2022/05/03 08:30:15;;;;;;;;;30.75;24.00;;;;;15.13;49.46;101206.00;5012627;28;50705;-84
2022/05/03 08:32:40;;;;;;;;;40.00;35.25;;;;;15.10;49.77;101198.19;5015576;28;50874;-84
2022/05/03 08:35:06;;;;;;;;;37.00;34.00;;;;;15.33;49.65;101233.31;5016186;28;45459;-83
2022/05/03 08:43:01;;;;;;;;;40.00;35.50;;;;;15.48;49.51;101240.28;5014896;28;46333;-84
2022/05/03 08:45:27;;;;;;;;;32.50;30.00;;;;;15.57;50.54;101235.28;5016798;28;45254;-82
2022/05/03 08:47:56;;;;;;;;;30.75;30.00;;;;;15.68;49.32;101235.38;5017058;28;45327;-83
2022/05/03 08:50:22;;;;;;;;;37.25;30.25;;;;;15.73;49.17;101234.13;4998541;28;47756;-83
2022/05/03 08:52:50;;;;;;;;;36.50;31.00;;;;;15.76;48.75;101236.59;4997490;28;45598;-83
2022/05/03 08:55:16;;;;;;;;;33.00;30.00;;;;;15.72;48.76;101226.16;5012509;28;45496;-83
2022/05/03 08:57:43;;;;;;;;;36.50;32.25;;;;;15.79;48.40;101226.59;5015828;28;47257;-84
2022/05/03 09:00:09;;;;;;;;;31.25;30.25;;;;;15.73;49.04;101215.34;5016980;28;45511;-83
2022/05/03 09:02:41;;;;;;;;;32.00;30.00;;;;;15.89;49.04;101233.03;5015784;28;45539;-83
2022/05/03 09:05:07;;;;;;;;;37.50;32.00;;;;;15.89;48.65;101220.47;5015210;28;45478;-83
2022/05/03 09:07:34;;;;;;;;;33.75;30.00;;;;;16.00;48.74;101219.72;5011615;28;45333;-82
2022/05/03 09:10:15;;;;;;;;;36.00;32.00;;;;;16.08;48.40;101228.06;5014270;28;46113;-83
2022/05/03 09:12:41;;;;;;;;;31.50;29.25;;;;;16.17;48.25;101218.50;5016061;28;45621;-83
2022/05/03 09:15:07;;;;;;;;;29.25;26.00;;;;;16.21;48.07;101217.31;4998170;28;45697;-83
2022/05/03 09:17:43;;;;;;;;;29.50;28.75;;;;;16.35;47.85;101235.13;5015568;28;45543;-83
2022/05/03 09:25:53;;;;;;;;;28.50;26.00;;;;;16.39;46.76;101186.41;5016430;28;45441;-83
2022/05/03 09:28:23;;;;;;;;;22.75;20.00;;;;;16.68;46.50;101218.34;5016302;28;45356;-83
2022/05/03 09:30:50;;;;;;;;;24.50;24.50;;;;;16.72;46.09;101217.16;4997698;28;46219;-82
2022/05/03 09:33:23;;;;;;;;;26.25;26.25;;;;;16.98;45.58;101236.75;4998674;28;45471;-82
2022/05/03 09:35:50;;;;;;;;;20.75;20.50;;;;;16.99;45.21;101210.72;5015356;28;45654;-83
2022/05/03 09:38:16;;;;;;;;;30.25;28.75;;;;;17.15;44.65;101219.34;5016109;28;45426;-83
2022/05/03 09:40:45;;;;;;;;;26.25;23.50;;;;;17.31;44.66;101224.38;5016411;28;45927;-83
2022/05/03 09:43:11;;;;;;;;;28.75;25.00;;;;;17.39;44.54;101221.09;5015735;28;45326;-83
2022/05/03 09:45:37;;;;;;;;;26.25;24.25;;;;;17.49;43.36;101218.59;5015816;28;45528;-83
2022/05/03 09:48:04;;;;;;;;;26.00;23.50;;;;;17.48;43.38;101208.78;5016094;28;45347;-84
2022/05/03 09:50:29;;;;;;;;;29.50;26.75;;;;;17.66;42.76;101216.28;5015281;28;45451;-83
2022/05/03 09:52:56;;;;;;;;;27.00;25.50;;;;;17.67;42.91;101219.81;5015183;28;45420;-83
2022/05/03 09:55:36;;;;;;;;;25.75;24.75;;;;;17.37;42.45;101161.19;5014607;28;45348;-83
2022/05/03 09:58:04;;;;;;;;;28.50;28.50;;;;;17.77;42.84;101214.56;5014021;28;45369;-83
2022/05/03 10:00:34;;;;;;;;;24.75;24.50;;;;;17.69;42.75;101204.41;5014817;28;46232;-83
2022/05/03 10:03:01;;;;;;;;;23.50;22.50;;;;;17.82;42.82;101180.97;5014881;28;45612;-83
2022/05/03 10:05:27;;;;;;;;;21.25;20.50;;;;;18.11;42.46;101199.28;5015081;28;45428;-83
2022/05/03 10:07:54;;;;;;;;;25.50;20.25;;;;;18.35;41.97;101219.84;5015073;28;45489;-83
2022/05/03 10:10:20;;;;;;;;;27.75;23.75;;;;;18.47;41.82;101217.03;4996376;28;47662;-84
2022/05/03 10:12:47;;;;;;;;;22.00;22.00;;;;;18.57;41.22;101210.84;5014787;28;45518;-83
2022/05/03 10:20:35;;;;;;;;;21.00;21.00;;;;;18.62;40.29;101217.59;5015432;28;45353;-84
2022/05/03 10:20:57;;;;;;;;;22.75;21.25;;;;;18.76;41.48;101211.09;5014474;28;45413;-84
2022/05/03 10:23:32;;;;;;;;;21.50;19.75;;;;;18.91;40.42;101206.25;5015171;28;45547;-84
2022/05/03 10:26:03;;;;;;;;;21.25;19.25;;;;;19.02;40.01;101211.59;5015362;28;45376;-84
2022/05/03 10:29:00;;;;;;;;;19.50;17.50;;;;;19.16;39.98;101205.88;5005604;28;45606;-84
2022/05/03 10:31:26;;;;;;;;;21.25;21.25;;;;;19.13;40.37;101186.41;5006690;28;45421;-84
2022/05/03 10:33:52;;;;;;;;;22.00;18.50;;;;;19.26;39.53;101203.25;5014638;28;45417;-85
2022/05/03 10:36:32;;;;;;;;;20.50;20.50;;;;;19.35;39.35;101198.91;5015452;28;45548;-84
2022/05/03 10:39:05;;;;;;;;;12.75;11.25;;;;;19.50;39.19;101199.44;5005184;28;45420;-84
2022/05/03 10:41:31;;;;;;;;;16.25;15.50;;;;;19.71;38.72;101199.44;4996985;28;47328;-84
2022/05/03 10:43:57;;;;;;;;;21.75;20.25;;;;;19.89;38.44;101200.56;5015042;28;45752;-88
2022/05/03 10:46:23;;;;;;;;;23.00;20.00;;;;;19.97;38.34;101195.31;5015467;28;45434;-89
2022/05/03 10:49:13;;;;;;;;;19.75;18.25;;;;;20.08;37.78;101202.44;5014936;28;45616;-90
2022/05/03 10:51:39;;;;;;;;;19.50;18.75;;;;;20.05;37.98;101189.22;5014539;28;45324;-89
2022/05/03 10:54:06;;;;;;;;;22.50;22.50;;;;;19.89;37.45;101149.22;5015458;28;45584;-89
2022/05/03 10:56:31;;;;;;;;;16.75;16.00;;;;;20.27;37.09;101201.66;4996483;28;45530;-89
2022/05/03 10:59:08;;;;;;;;;14.50;14.25;;;;;20.32;37.22;101180.47;5015005;28;45346;-88
2022/05/03 11:01:53;;;;;;;;;25.25;22.00;;;;;20.56;37.37;101192.78;5005845;28;46193;-89
2022/05/03 11:04:19;;;;;;;;;16.75;16.75;;;;;20.50;37.58;101160.88;5014720;28;45482;-90
2022/05/03 11:06:47;;;;;;;;;18.25;18.25;;;;;20.56;36.62;101161.19;5014922;28;45473;-90
2022/05/03 11:09:15;;;;;;;;;18.50;18.50;;;;;20.78;36.91;101184.44;5015453;28;45372;-88
2022/05/03 11:11:53;;;;;;;;;19.00;19.00;;;;;20.90;36.18;101181.56;5014634;28;45481;-90
2022/05/03 11:14:18;;;;;;;;;23.00;21.00;;;;;20.97;36.08;101193.53;5008535;28;45994;-90
2022/05/03 11:17:10;;;;;;;;;20.00;19.50;;;;;21.03;35.88;101182.16;5014520;28;45333;-91
2022/05/03 11:19:49;;;;;;;;;18.25;18.25;;;;;21.13;36.22;101183.00;5004621;28;45577;-89
2022/05/03 11:22:35;;;;;;;;;18.25;15.25;;;;;21.15;35.88;101180.16;5012831;28;46577;-89
2022/05/03 11:25:12;;;;;;;;;17.00;17.00;;;;;21.27;35.62;101176.28;5013659;28;45597;-89
2022/05/03 11:27:38;;;;;;;;;15.25;14.00;;;;;21.19;35.65;101154.47;5013954;28;45588;-89
2022/05/03 11:30:09;;;;;;;;;15.75;15.75;;;;;21.47;35.56;101179.81;5006526;28;45692;-88
2022/05/03 11:32:38;;;;;;;;;18.25;16.75;;;;;21.57;35.14;101179.81;5011060;28;47912;-90
2022/05/03 11:35:08;;;;;;;;;19.50;18.25;;;;;21.72;35.03;101163.91;5012922;28;46603;-89
2022/05/03 11:37:34;;;;;;;;;18.75;18.75;;;;;21.82;34.71;101162.06;5012905;28;46665;-89
2022/05/03 11:40:09;;;;;;;;;16.75;15.50;;;;;21.65;35.34;101121.16;5012690;28;45479;-90
2022/05/03 11:42:40;;;;;;;;;17.75;16.50;;;;;21.81;34.46;101134.06;5011907;28;45638;-89
2022/05/03 11:45:07;;;;;;;;;13.75;13.00;;;;;21.73;34.86;101142.09;4997059;28;45506;-90
2022/05/03 11:47:44;;;;;;;;;16.75;16.25;;;;;22.01;34.51;101158.41;5013591;28;45547;-89
2022/05/03 11:50:13;;;;;;;;;17.50;15.50;;;;;22.05;33.82;101162.50;5013507;28;45478;-89
2022/05/03 11:58:08;;;;;;;;;17.75;16.50;;;;;22.17;33.33;101130.59;5013093;28;45491;-89